createdAt,value
2023-10-19T00:01:34.407Z,985.00
2023-10-19T00:06:34.347Z,985.00
2023-10-19T00:11:34.167Z,984.00
2023-10-19T00:16:34.176Z,984.00
2023-10-19T00:21:34.045Z,984.00
2023-10-19T00:26:33.902Z,984.00
2023-10-19T00:31:36.938Z,984.00
2023-10-19T00:36:33.781Z,984.00
2023-10-19T00:41:33.770Z,984.00
2023-10-19T00:46:33.972Z,984.00
2023-10-19T00:51:33.633Z,984.00
2023-10-19T00:56:33.544Z,984.00
2023-10-19T01:01:33.566Z,984.00
2023-10-19T01:06:33.386Z,984.00
2023-10-19T01:11:33.411Z,984.00
2023-10-19T01:16:33.325Z,984.00
2023-10-19T01:21:33.257Z,984.00
2023-10-19T01:26:33.140Z,984.00
2023-10-19T01:31:36.211Z,983.00
2023-10-19T01:36:33.023Z,983.00
2023-10-19T01:41:33.030Z,983.00
2023-10-19T01:46:33.004Z,983.00
2023-10-19T01:51:32.857Z,983.00
2023-10-19T01:56:32.769Z,983.00
2023-10-19T02:01:32.778Z,983.00
2023-10-19T02:06:32.617Z,983.00
2023-10-19T02:11:32.612Z,983.00
2023-10-19T02:16:32.527Z,983.00
2023-10-19T02:21:32.483Z,983.00
2023-10-19T02:26:32.371Z,983.00
2023-10-19T02:31:35.378Z,983.00
2023-10-19T02:36:32.230Z,982.00
2023-10-19T02:41:32.277Z,982.00
2023-10-19T02:46:32.205Z,982.00
2023-10-19T02:51:32.207Z,982.00
2023-10-19T02:56:31.978Z,982.00
2023-10-19T03:01:31.999Z,982.00
2023-10-19T03:06:31.874Z,982.00
2023-10-19T03:11:31.839Z,982.00
2023-10-19T03:16:31.886Z,982.00
2023-10-19T03:21:31.711Z,982.00
2023-10-19T03:26:31.632Z,982.00
2023-10-19T03:31:34.631Z,982.00
2023-10-19T03:36:31.442Z,981.00
2023-10-19T03:41:31.410Z,981.00
2023-10-19T03:46:31.360Z,981.00
2023-10-19T03:51:31.302Z,981.00
2023-10-19T03:56:31.163Z,981.00
2023-10-19T04:01:31.281Z,981.00
2023-10-19T04:06:31.067Z,981.00
2023-10-19T04:11:31.037Z,981.00
2023-10-19T04:16:30.963Z,981.00
2023-10-19T04:21:30.908Z,981.00
2023-10-19T04:26:30.763Z,981.00
2023-10-19T04:31:33.795Z,981.00
2023-10-19T04:36:30.637Z,981.00
2023-10-19T04:41:30.744Z,981.00
2023-10-19T04:46:30.574Z,981.00
2023-10-19T04:51:30.523Z,981.00
2023-10-19T04:56:30.387Z,980.00
2023-10-19T05:01:30.443Z,980.00
2023-10-19T05:06:30.255Z,980.00
2023-10-19T05:11:30.269Z,980.00
2023-10-19T05:16:30.139Z,980.00
2023-10-19T05:21:30.092Z,980.00
2023-10-19T05:26:29.967Z,980.00
2023-10-19T05:31:33.087Z,980.00
2023-10-19T05:36:29.818Z,980.00
2023-10-19T05:41:29.844Z,980.00
2023-10-19T05:46:29.841Z,980.00
2023-10-19T05:51:29.685Z,980.00
2023-10-19T05:56:29.559Z,980.00
2023-10-19T06:01:29.630Z,980.00
2023-10-19T06:06:29.419Z,980.00
2023-10-19T06:11:29.443Z,980.00
2023-10-19T06:16:29.486Z,980.00
2023-10-19T06:21:29.259Z,980.00
2023-10-19T06:26:29.136Z,980.00
2023-10-19T06:31:32.186Z,981.00
2023-10-19T06:36:29.016Z,981.00
2023-10-19T06:41:28.974Z,981.00
2023-10-19T06:46:28.948Z,981.00
2023-10-19T06:51:28.877Z,981.00
2023-10-19T06:56:28.743Z,981.00
2023-10-19T07:01:28.811Z,981.00
2023-10-19T07:06:28.605Z,981.00
2023-10-19T07:11:28.722Z,980.00
2023-10-19T07:16:28.620Z,980.00
2023-10-19T07:21:28.533Z,980.00
2023-10-19T07:26:28.359Z,980.00
2023-10-19T07:31:31.420Z,980.00
2023-10-19T07:36:28.260Z,980.00
2023-10-19T07:41:28.223Z,980.00
2023-10-19T07:46:28.142Z,980.00
2023-10-19T07:51:28.056Z,980.00
2023-10-19T07:56:27.974Z,980.00
2023-10-19T08:01:27.997Z,980.00
2023-10-19T08:06:27.844Z,980.00
2023-10-19T08:11:27.803Z,980.00
2023-10-19T08:16:27.785Z,980.00
2023-10-19T08:21:27.871Z,980.00
2023-10-19T08:26:27.549Z,980.00
2023-10-19T08:31:30.728Z,980.00
2023-10-19T08:36:28.582Z,980.00
2023-10-19T08:41:27.362Z,980.00
2023-10-19T08:46:27.281Z,980.00
2023-10-19T08:51:27.241Z,980.00
2023-10-19T08:56:27.138Z,980.00
2023-10-19T09:01:34.898Z,980.00
2023-10-19T09:06:26.988Z,980.00
2023-10-19T09:11:26.945Z,980.00
2023-10-19T09:16:26.924Z,980.00
2023-10-19T09:21:26.861Z,980.00
2023-10-19T09:26:26.776Z,980.00
2023-10-19T09:31:29.953Z,980.00
2023-10-19T09:36:26.582Z,980.00
2023-10-19T09:41:26.637Z,980.00
2023-10-19T09:46:26.499Z,980.00
2023-10-19T09:51:26.433Z,980.00
2023-10-19T09:56:26.330Z,980.00
2023-10-19T10:01:26.330Z,980.00
2023-10-19T10:06:26.225Z,980.00
2023-10-19T10:11:26.234Z,980.00
2023-10-19T10:16:26.148Z,980.00
2023-10-19T10:21:26.101Z,980.00
2023-10-19T10:26:25.982Z,980.00
2023-10-19T10:31:36.332Z,980.00
2023-10-19T10:36:25.784Z,980.00
2023-10-19T10:41:25.769Z,980.00
2023-10-19T10:46:25.768Z,979.00
2023-10-19T10:51:25.708Z,979.00
2023-10-19T10:56:25.630Z,979.00
2023-10-19T11:01:25.522Z,979.00
2023-10-19T11:06:25.455Z,979.00
2023-10-19T11:11:25.359Z,979.00
2023-10-19T11:16:25.320Z,979.00
2023-10-19T11:21:25.329Z,979.00
2023-10-19T11:26:25.173Z,979.00
2023-10-19T11:31:36.054Z,979.00
2023-10-19T11:36:25.002Z,979.00
2023-10-19T11:41:24.976Z,979.00
2023-10-19T11:46:24.871Z,979.00
2023-10-19T11:51:24.871Z,979.00
2023-10-19T11:56:24.764Z,979.00
2023-10-19T12:01:32.632Z,979.00
2023-10-19T12:06:31.702Z,979.00
2023-10-19T12:11:24.562Z,979.00
2023-10-19T12:16:24.458Z,979.00
2023-10-19T12:21:32.211Z,979.00
2023-10-19T12:26:24.334Z,979.00
2023-10-19T12:31:27.378Z,979.00
2023-10-19T12:36:24.200Z,978.00
2023-10-19T12:41:24.235Z,978.00
2023-10-19T12:46:24.276Z,978.00
2023-10-19T12:51:31.879Z,978.00
2023-10-19T12:56:23.880Z,978.00
2023-10-19T13:01:23.910Z,978.00
2023-10-19T13:06:23.814Z,978.00
2023-10-19T13:11:24.926Z,978.00
2023-10-19T13:16:23.861Z,978.00
2023-10-19T13:21:23.685Z,978.00
2023-10-19T13:26:23.567Z,978.00
2023-10-19T13:31:26.575Z,978.00
2023-10-19T13:36:32.744Z,978.00
2023-10-19T13:41:23.310Z,978.00
2023-10-19T13:46:23.427Z,978.00
2023-10-19T13:51:23.171Z,978.00
2023-10-19T13:56:23.206Z,978.00
2023-10-19T14:01:23.048Z,978.00
2023-10-19T14:06:23.097Z,978.00
2023-10-19T14:11:22.968Z,978.00
2023-10-19T14:16:23.138Z,978.00
2023-10-19T14:21:30.818Z,978.00
2023-10-19T14:26:22.715Z,978.00
2023-10-19T14:31:25.715Z,978.00
2023-10-19T14:36:22.577Z,978.00
2023-10-19T14:41:22.611Z,978.00
2023-10-19T14:46:22.465Z,978.00
2023-10-19T14:51:22.407Z,978.00
2023-10-19T14:56:22.392Z,978.00
2023-10-19T15:01:22.308Z,978.00
2023-10-19T15:06:22.138Z,978.00
2023-10-19T15:11:22.152Z,978.00
2023-10-19T15:16:22.099Z,978.00
2023-10-19T15:21:22.195Z,978.00
2023-10-19T15:26:21.950Z,978.00
2023-10-19T15:31:24.895Z,978.00
2023-10-19T15:36:21.749Z,978.00
2023-10-19T15:41:29.428Z,978.00
2023-10-19T15:46:21.591Z,978.00
2023-10-19T15:51:21.569Z,978.00
2023-10-19T15:56:21.491Z,978.00
2023-10-19T16:01:21.596Z,978.00
2023-10-19T16:06:21.325Z,978.00
2023-10-19T16:11:23.360Z,978.00
2023-10-19T16:16:21.238Z,978.00
2023-10-19T16:21:21.174Z,978.00
2023-10-19T16:26:21.071Z,978.00
2023-10-19T16:31:24.283Z,978.00
2023-10-19T16:36:20.950Z,978.00
2023-10-19T16:41:28.498Z,978.00
2023-10-19T16:46:20.821Z,978.00
2023-10-19T16:51:20.768Z,978.00
2023-10-19T16:56:20.795Z,978.00
2023-10-19T17:01:20.772Z,978.00
2023-10-19T17:06:20.546Z,977.00
2023-10-19T17:11:20.604Z,977.00
2023-10-19T17:16:20.444Z,977.00
2023-10-19T17:21:20.412Z,977.00
2023-10-19T17:26:29.975Z,977.00
2023-10-19T17:31:23.226Z,977.00
2023-10-19T17:36:20.485Z,977.00
2023-10-19T17:41:20.116Z,977.00
2023-10-19T17:46:20.148Z,977.00
2023-10-19T17:51:19.938Z,977.00
2023-10-19T17:56:19.922Z,977.00
2023-10-19T18:01:19.938Z,977.00
2023-10-19T18:06:27.540Z,977.00
2023-10-19T18:11:19.724Z,977.00
2023-10-19T18:16:19.687Z,977.00
2023-10-19T18:21:22.168Z,977.00
2023-10-19T18:26:19.614Z,977.00
2023-10-19T18:31:22.545Z,977.00
2023-10-19T18:36:19.358Z,977.00
2023-10-19T18:41:19.369Z,977.00
2023-10-19T18:46:19.230Z,977.00
2023-10-19T18:51:19.190Z,977.00
2023-10-19T18:56:19.126Z,977.00
2023-10-19T19:01:19.093Z,977.00
2023-10-19T19:06:18.949Z,977.00
2023-10-19T19:11:19.004Z,977.00
2023-10-19T19:16:18.856Z,977.00
2023-10-19T19:21:18.848Z,977.00
2023-10-19T19:26:18.771Z,977.00
2023-10-19T19:31:21.677Z,977.00
2023-10-19T19:36:18.546Z,977.00
2023-10-19T19:41:26.013Z,976.00
2023-10-19T19:46:18.414Z,976.00
2023-10-19T19:51:18.374Z,976.00
2023-10-19T19:56:18.337Z,977.00
2023-10-19T20:01:18.374Z,977.00
2023-10-19T20:06:18.157Z,977.00
2023-10-19T20:11:18.206Z,977.00
2023-10-19T20:16:18.042Z,977.00
2023-10-19T20:21:18.046Z,977.00
2023-10-19T20:26:17.936Z,977.00
2023-10-19T20:31:21.179Z,976.00
2023-10-19T20:36:17.771Z,976.00
2023-10-19T20:41:17.792Z,976.00
2023-10-19T20:46:17.678Z,976.00
2023-10-19T20:51:17.667Z,976.00
2023-10-19T20:56:17.499Z,976.00
2023-10-19T21:01:17.532Z,976.00
2023-10-19T21:06:17.408Z,976.00
2023-10-19T21:11:17.377Z,976.00
2023-10-19T21:16:24.982Z,976.00
2023-10-19T21:21:17.157Z,976.00
2023-10-19T21:26:17.243Z,976.00
2023-10-19T21:31:20.103Z,976.00
2023-10-19T21:36:16.986Z,976.00
2023-10-19T21:41:17.038Z,976.00
2023-10-19T21:46:16.907Z,976.00
2023-10-19T21:51:16.814Z,976.00
2023-10-19T21:56:16.772Z,976.00
2023-10-19T22:01:26.955Z,976.00
2023-10-19T22:06:16.624Z,976.00
2023-10-19T22:11:16.594Z,976.00
2023-10-19T22:16:16.462Z,976.00
2023-10-19T22:21:16.421Z,976.00
2023-10-19T22:26:16.326Z,976.00
2023-10-19T22:31:19.320Z,976.00
2023-10-19T22:36:16.217Z,976.00
2023-10-19T22:41:16.259Z,976.00
2023-10-19T22:46:24.101Z,975.00
2023-10-19T22:51:15.996Z,975.00
2023-10-19T22:56:16.037Z,975.00
2023-10-19T23:01:15.896Z,975.00
2023-10-19T23:06:15.991Z,975.00
2023-10-19T23:11:15.772Z,975.00
2023-10-19T23:16:15.884Z,975.00
2023-10-19T23:21:15.592Z,975.00
2023-10-19T23:26:15.620Z,975.00
2023-10-19T23:31:27.809Z,975.00
2023-10-19T23:36:15.358Z,975.00
2023-10-19T23:41:15.477Z,975.00
2023-10-19T23:46:15.272Z,975.00
2023-10-19T23:51:15.415Z,975.00
2023-10-19T23:56:15.158Z,975.00
